Time;durP1;ratioP1;P1;durP2;ratioP2;P2;SDS_P1;SDS_P2;PMS_P1;PMS_P2;Temp;Humidity;BMP_temperature;BMP_pressure;BME280_temperature;BME280_humidity;BME280_pressure;Samples;Min_cycle;Max_cycle;Signal;HPM_P1;HPM_P2
2022/05/30 00:00:22;;;;;;;27.35;8.70;;;;;;;14.74;82.49;100012.22;10457410;28;20049;-73
2022/05/30 00:05:24;;;;;;;22.02;7.90;;;;;;;15.58;83.43;100157.22;10458674;28;20036;-73
2022/05/30 00:10:25;;;;;;;31.98;10.95;;;;;;;15.27;83.26;100100.56;10457374;28;20098;-73
2022/05/30 00:15:25;;;;;;;55.00;18.90;;;;;;;14.60;83.13;100015.94;10457037;28;20061;-73
2022/05/30 00:20:26;;;;;;;69.72;18.55;;;;;;;14.94;83.33;100095.19;10455626;28;20108;-72
2022/05/30 00:25:27;;;;;;;43.03;14.30;;;;;;;15.23;83.47;100154.72;10457323;28;20122;-73
2022/05/30 00:30:28;;;;;;;54.42;20.33;;;;;;;14.87;83.76;100109.53;10456929;28;20036;-73
2022/05/30 00:35:29;;;;;;;40.33;15.43;;;;;;;14.85;83.85;100112.44;10456260;28;20232;-73
2022/05/30 00:40:31;;;;;;;65.18;14.75;;;;;;;14.92;83.94;100148.03;10456867;28;20130;-73
2022/05/30 00:45:31;;;;;;;47.28;19.38;;;;;;;14.61;84.64;100136.00;10455819;28;20436;-73
2022/05/30 00:50:32;;;;;;;28.67;12.20;;;;;;;14.78;85.92;100143.69;10456330;28;20064;-73
2022/05/30 00:55:34;;;;;;;19.73;9.10;;;;;;;14.84;87.00;100178.47;10455699;28;20127;-73
2022/05/30 01:00:35;;;;;;;47.20;10.73;;;;;;;13.87;86.40;100004.91;10455888;28;20044;-73
2022/05/30 01:10:56;;;;;;;39.90;12.15;;;;;;;14.88;86.86;100194.13;10455607;28;20148;-73
2022/05/30 01:15:57;;;;;;;50.60;13.20;;;;;;;14.77;86.80;100187.47;10453757;28;20214;-73
2022/05/30 01:21:16;;;;;;;28.13;9.98;;;;;;;14.83;87.27;100203.56;10455888;28;20115;-73
2022/05/30 01:26:56;;;;;;;19.95;8.93;;;;;;;14.86;90.60;100215.69;10455128;28;20052;-73
2022/05/30 01:31:57;;;;;;;17.40;8.32;;;;;;;14.77;87.46;100214.22;10442851;28;20045;-73
2022/05/30 01:36:58;;;;;;;34.92;8.80;;;;;;;14.78;86.89;100222.06;10454702;28;20048;-73
2022/05/30 01:41:58;;;;;;;44.53;8.48;;;;;;;14.84;87.16;100233.81;10454409;28;20045;-73
2022/05/30 01:46:59;;;;;;;43.60;8.52;;;;;;;14.86;87.07;100236.28;10454020;28;20059;-74
2022/05/30 01:52:00;;;;;;;20.40;7.78;;;;;;;14.99;86.96;100249.72;10483265;28;20060;-73
2022/05/30 01:57:01;;;;;;;18.48;6.47;;;;;;;15.04;86.69;100249.94;10495654;28;20044;-73
2022/05/30 02:02:02;;;;;;;10.65;5.80;;;;;;;15.10;86.25;100256.34;10495698;28;20036;-72
2022/05/30 02:07:03;;;;;;;13.52;6.20;;;;;;;14.93;85.69;100211.22;10495518;28;20482;-73
2022/05/30 02:12:04;;;;;;;16.63;6.10;;;;;;;13.87;85.54;99996.91;10495734;28;20060;-73
2022/05/30 02:17:06;;;;;;;46.85;7.22;;;;;;;15.80;84.65;100251.63;10495122;28;20404;-73
2022/05/30 02:22:10;;;;;;;12.75;5.65;;;;;;;15.35;83.11;100137.03;10494422;28;20040;-73
2022/05/30 02:27:12;;;;;;;12.23;5.28;;;;;;;16.60;81.47;100274.69;10494554;28;20084;-74
2022/05/30 02:32:13;;;;;;;15.63;5.30;;;;;;;16.87;80.57;100247.81;10495188;28;20040;-75
2022/05/30 02:37:14;;;;;;;14.35;5.22;;;;;;;17.51;78.78;100275.63;10495030;28;20101;-74
2022/05/30 02:42:16;;;;;;;11.13;4.85;;;;;;;18.23;76.79;100266.25;10494148;28;20040;-73
2022/05/30 02:47:17;;;;;;;14.18;5.47;;;;;;;18.90;74.72;100268.31;10494240;28;20036;-73
2022/05/30 02:52:18;;;;;;;13.38;5.18;;;;;;;19.83;71.62;100276.03;10494886;28;20060;-73
2022/05/30 02:57:19;;;;;;;10.82;4.43;;;;;;;20.76;67.68;100243.97;10496441;28;20056;-74
2022/05/30 03:02:20;;;;;;;21.77;5.38;;;;;;;21.82;64.36;100249.81;10475985;28;20099;-74
2022/05/30 03:07:22;;;;;;;13.60;5.45;;;;;;;22.53;62.10;100257.44;10472675;28;20044;-74
2022/05/30 03:12:22;;;;;;;16.23;5.55;;;;;;;23.53;59.56;100274.38;10459531;28;20052;-74
2022/05/30 03:17:23;;;;;;;21.15;6.97;;;;;;;23.51;57.02;100159.94;10460174;28;20041;-74
2022/05/30 03:22:24;;;;;;;14.00;5.85;;;;;;;24.35;55.02;100201.81;10459138;28;20068;-72
2022/05/30 03:27:25;;;;;;;14.68;6.18;;;;;;;24.72;53.71;100180.03;10492991;28;20476;-73
2022/05/30 03:32:25;;;;;;;10.80;6.38;;;;;;;25.63;52.62;100245.81;10513929;28;20059;-78
2022/05/30 03:37:27;;;;;;;17.67;6.55;;;;;;;25.79;52.28;100290.19;10464832;28;20045;-77
2022/05/30 03:42:28;;;;;;;17.67;6.22;;;;;;;26.14;51.51;100286.69;10458147;28;20052;-74
2022/05/30 03:47:36;;;;;;;13.90;6.95;;;;;;;26.70;48.79;100251.22;10458357;28;20037;-74
2022/05/30 03:52:37;;;;;;;15.95;7.30;;;;;;;26.47;49.01;100165.44;10458732;28;20083;-74
2022/05/30 03:57:40;;;;;;;15.73;8.30;;;;;;;27.33;48.49;100307.16;10457874;28;20520;-74
2022/05/30 04:02:41;;;;;;;17.10;8.30;;;;;;;27.39;48.20;100290.47;10460124;28;20045;-77
2022/05/30 04:07:42;;;;;;;15.55;7.70;;;;;;;27.12;48.04;100230.88;10477230;28;20041;-77
2022/05/30 04:12:43;;;;;;;15.10;6.80;;;;;;;27.68;47.31;100290.59;10456830;28;20528;-76
2022/05/30 04:17:43;;;;;;;16.17;7.15;;;;;;;28.04;46.65;100279.44;10474171;28;20058;-75
2022/05/30 04:22:44;;;;;;;13.82;6.40;;;;;;;28.43;45.42;100273.09;10475445;28;20053;-77
2022/05/30 04:27:45;;;;;;;13.90;6.90;;;;;;;28.48;45.09;100294.91;10456346;28;20412;-76
2022/05/30 04:32:47;;;;;;;17.35;6.97;;;;;;;27.89;46.44;100277.63;10479077;28;20120;-76
2022/05/30 04:37:50;;;;;;;23.42;8.35;;;;;;;27.65;47.63;100304.00;10495573;28;20080;-76
2022/05/30 04:42:50;;;;;;;14.95;7.25;;;;;;;27.32;47.13;100183.63;10492258;28;20036;-75
2022/05/30 04:47:51;;;;;;;21.83;6.88;;;;;;;28.27;46.71;100304.34;10492355;28;20044;-75
2022/05/30 04:52:52;;;;;;;13.40;5.15;;;;;;;28.02;46.01;100245.31;10432269;28;20062;-73
2022/05/30 04:57:53;;;;;;;15.88;5.30;;;;;;;27.48;46.36;100189.75;10421016;28;20076;-72
2022/05/30 05:02:54;;;;;;;13.10;4.45;;;;;;;27.61;46.81;100271.00;10441552;28;20060;-74
2022/05/30 05:08:15;;;;;;;9.63;4.00;;;;;;;27.49;48.52;100316.88;10422155;28;20056;-73
2022/05/30 05:13:15;;;;;;;14.82;4.20;;;;;;;26.41;49.33;100196.50;10373156;28;20536;-70
2022/05/30 05:18:16;;;;;;;11.77;4.72;;;;;;;26.80;49.59;100264.00;10395997;28;20048;-71
2022/05/30 05:23:17;;;;;;;17.13;3.97;;;;;;;26.96;50.00;100294.75;10412836;28;20101;-71
2022/05/30 05:28:18;;;;;;;12.43;4.40;;;;;;;26.32;50.27;100184.56;10413852;28;20191;-71
2022/05/30 05:33:18;;;;;;;18.70;4.00;;;;;;;27.28;50.31;100295.19;10449804;28;20048;-73
2022/05/30 05:38:19;;;;;;;10.77;3.67;;;;;;;26.69;49.73;100194.28;10425921;28;20048;-72
2022/05/30 05:43:20;;;;;;;13.50;4.20;;;;;;;26.89;49.71;100215.16;10412665;28;20045;-71
2022/05/30 05:48:21;;;;;;;13.82;4.00;;;;;;;26.70;49.91;100180.38;10416129;28;20424;-73
2022/05/30 05:53:21;;;;;;;9.57;4.05;;;;;;;26.51;49.67;100171.19;10493253;28;20059;-74
2022/05/30 05:58:22;;;;;;;14.73;4.07;;;;;;;26.61;49.56;100182.03;10495590;28;20044;-71
2022/05/30 06:03:23;;;;;;;11.25;3.42;;;;;;;27.62;48.63;100299.91;10495518;28;20048;-72
2022/05/30 06:08:24;;;;;;;12.65;3.95;;;;;;;27.70;48.82;100288.41;10495334;28;20104;-70
2022/05/30 06:13:25;;;;;;;13.18;3.88;;;;;;;27.82;48.02;100276.31;10477008;28;20036;-73
2022/05/30 06:18:26;;;;;;;10.27;3.95;;;;;;;27.96;48.07;100242.63;10495754;28;20036;-71
2022/05/30 06:23:27;;;;;;;13.40;4.28;;;;;;;28.18;48.55;100246.78;10495115;28;20048;-73
2022/05/30 06:28:29;;;;;;;9.23;3.80;;;;;;;27.64;47.75;100166.72;10495527;28;20045;-71
2022/05/30 06:33:29;;;;;;;10.23;3.38;;;;;;;27.25;47.29;100076.75;10498701;28;20042;-68
2022/05/30 06:38:30;;;;;;;12.85;3.97;;;;;;;28.83;47.22;100285.50;10485320;28;20495;-72
2022/05/30 06:43:31;;;;;;;14.35;3.92;;;;;;;28.27;46.96;100165.88;10489030;28;20091;-71
2022/05/30 06:48:32;;;;;;;11.65;3.65;;;;;;;28.33;45.87;100133.81;10498736;28;20040;-71
2022/05/30 06:53:33;;;;;;;15.40;3.83;;;;;;;29.35;45.03;100270.09;10501110;28;20044;-71
2022/05/30 06:58:34;;;;;;;17.25;4.53;;;;;;;29.44;45.20;100222.94;10491527;28;20040;-69
2022/05/30 07:03:35;;;;;;;16.17;3.83;;;;;;;29.66;43.49;100246.97;10497679;28;20032;-71
2022/05/30 07:08:37;;;;;;;19.38;3.40;;;;;;;29.57;41.68;100201.06;10501966;28;20122;-71
2022/05/30 07:13:38;;;;;;;14.40;3.92;;;;;;;30.27;39.68;100278.81;10484151;28;20518;-72
2022/05/30 07:18:39;;;;;;;11.38;3.08;;;;;;;30.34;38.39;100240.91;10499192;28;20046;-70
2022/05/30 07:23:41;;;;;;;13.38;4.97;;;;;;;30.76;38.16;100266.41;10496669;28;20056;-70
2022/05/30 07:28:42;;;;;;;16.47;5.23;;;;;;;30.83;37.99;100257.78;10493243;28;20400;-70
2022/05/30 07:33:46;;;;;;;16.48;4.25;;;;;;;30.92;37.68;100272.41;10500553;28;20037;-71
2022/05/30 07:38:48;;;;;;;18.73;3.65;;;;;;;30.36;36.83;100148.22;10499993;28;20488;-71
2022/05/30 07:43:49;;;;;;;27.88;5.75;;;;;;;30.29;38.09;100098.50;10477534;28;20407;-71
2022/05/30 07:48:50;;;;;;;10.55;3.83;;;;;;;31.47;35.29;100244.91;10477210;28;20408;-70
2022/05/30 07:53:51;;;;;;;32.40;4.90;;;;;;;30.74;35.18;100103.31;10452140;28;20098;-70
2022/05/30 07:58:52;;;;;;;13.57;2.60;;;;;;;31.50;32.87;100207.75;10453610;28;20386;-70
2022/05/30 08:03:53;;;;;;;12.13;2.90;;;;;;;31.68;33.42;100216.94;10454501;28;20067;-69
2022/05/30 08:08:54;;;;;;;11.57;3.13;;;;;;;32.02;33.69;100236.44;10458042;28;20048;-70
2022/05/30 08:13:55;;;;;;;7.97;2.90;;;;;;;31.40;32.91;100109.19;10457726;28;20051;-70
2022/05/30 08:18:56;;;;;;;6.80;2.63;;;;;;;32.05;32.65;100213.00;10457044;28;20493;-69
2022/05/30 08:23:56;;;;;;;11.65;3.60;;;;;;;32.33;33.70;100221.06;10457258;28;20045;-71
2022/05/30 08:28:57;;;;;;;6.68;2.83;;;;;;;32.34;32.31;100222.69;10456985;28;20037;-71
2022/05/30 08:33:58;;;;;;;30.15;4.38;;;;;;;31.77;32.43;100110.69;10456087;28;20041;-69
2022/05/30 08:44:18;;;;;;;9.23;2.60;;;;;;;31.66;32.67;100005.03;10455679;28;20037;-71
2022/05/30 08:49:27;;;;;;;12.40;3.55;;;;;;;33.09;31.25;100213.41;10455839;28;20079;-71
2022/05/30 08:55:05;;;;;;;6.22;2.67;;;;;;;32.90;30.95;100208.16;10487791;28;20135;-72
2022/05/30 09:00:11;;;;;;;15.38;3.00;;;;;;;32.88;30.77;100204.94;10489933;28;20043;-71
2022/05/30 09:05:31;;;;;;;12.48;2.90;;;;;;;32.95;31.05;100199.75;10492845;28;20037;-71
2022/05/30 09:11:07;;;;;;;12.80;2.92;;;;;;;32.50;30.76;100117.50;10491149;28;20048;-74
2022/05/30 09:16:16;;;;;;;8.52;2.50;;;;;;;33.33;31.64;100204.69;10486312;28;20056;-72
2022/05/30 09:21:19;;;;;;;58.05;9.18;;;;;;;33.50;30.00;100186.50;10490090;28;20115;-73
2022/05/30 09:26:24;;;;;;;58.15;7.93;;;;;;;33.32;28.97;100167.25;10492451;28;20412;-72
2022/05/30 09:31:46;;;;;;;66.57;8.05;;;;;;;33.73;30.13;100200.94;10495742;28;20036;-73
2022/05/30 09:36:49;;;;;;;16.02;2.75;;;;;;;33.73;28.55;100189.91;10495656;28;20423;-71
2022/05/30 09:41:55;;;;;;;8.13;2.80;;;;;;;33.78;27.70;100165.75;10478427;28;20115;-75
2022/05/30 09:47:06;;;;;;;11.15;2.78;;;;;;;33.91;27.68;100141.09;10495755;28;20094;-73
2022/05/30 09:52:26;;;;;;;24.75;3.47;;;;;;;34.41;27.28;100167.97;10483247;28;20066;-72
2022/05/30 09:57:35;;;;;;;7.13;2.47;;;;;;;34.27;28.67;100157.19;10495622;28;20075;-72
2022/05/30 10:02:38;;;;;;;29.80;5.03;;;;;;;34.23;28.80;100156.22;10495614;28;20047;-71
2022/05/30 10:07:52;;;;;;;10.90;2.72;;;;;;;33.44;28.05;100039.94;10498724;28;20412;-73
2022/05/30 10:12:54;;;;;;;9.25;2.70;;;;;;;34.25;28.29;100140.16;10503169;28;20481;-72
2022/05/30 10:17:58;;;;;;;8.18;2.53;;;;;;;34.41;27.52;100141.22;10485782;28;20045;-71
2022/05/30 10:28:51;;;;;;;16.70;2.72;;;;;;;34.64;23.02;100139.00;10493696;28;20068;-71
2022/05/30 10:33:55;;;;;;;13.68;2.65;;;;;;;34.60;24.57;100140.00;10485805;28;20044;-71
2022/05/30 10:39:28;;;;;;;42.45;5.72;;;;;;;34.46;24.73;100072.09;10497883;28;20067;-72
2022/05/30 10:44:35;;;;;;;18.52;3.28;;;;;;;34.36;25.92;100068.91;10497862;28;20047;-72
2022/05/30 10:49:41;;;;;;;20.63;3.38;;;;;;;33.98;25.93;100023.69;10487415;28;20049;-72
2022/05/30 10:54:49;;;;;;;9.25;2.60;;;;;;;33.81;26.13;99999.81;10438542;28;20045;-72
2022/05/30 11:00:28;;;;;;;9.13;2.40;;;;;;;34.58;25.73;100084.34;10450402;28;20052;-71
2022/05/30 11:05:44;;;;;;;10.98;2.50;;;;;;;34.69;24.37;100097.41;10447451;28;20566;-70
2022/05/30 11:11:14;;;;;;;11.88;2.78;;;;;;;34.72;23.90;100088.44;10417255;28;20191;-75
2022/05/30 11:16:37;;;;;;;41.67;3.40;;;;;;;34.62;24.51;100080.59;10392610;28;20067;-74
2022/05/30 11:21:52;;;;;;;19.75;3.53;;;;;;;34.71;23.89;100078.56;10431276;28;20191;-74
2022/05/30 11:27:30;;;;;;;7.93;2.92;;;;;;;35.02;24.58;100073.75;10442001;28;20041;-72
2022/05/30 11:32:41;;;;;;;38.30;4.57;;;;;;;34.20;25.04;99967.47;10445227;28;20064;-71
2022/05/30 11:38:23;;;;;;;8.35;2.90;;;;;;;34.48;25.19;100002.78;10458726;28;20052;-72
2022/05/30 11:43:40;;;;;;;40.45;4.45;;;;;;;34.89;24.56;100048.06;10455150;28;20051;-71
2022/05/30 11:48:58;;;;;;;9.95;3.03;;;;;;;34.93;25.82;100060.84;10458916;28;20037;-71
2022/05/30 11:54:11;;;;;;;18.67;3.38;;;;;;;33.62;25.76;99853.41;10499460;28;20036;-70
2022/05/30 11:59:52;;;;;;;9.02;2.95;;;;;;;34.86;26.18;100044.03;10481406;28;20447;-72
2022/05/30 12:04:53;;;;;;;;;;;;;;;35.20;26.31;100044.88;10496402;28;20052;-70
2022/05/30 12:10:05;;;;;;;18.83;2.90;;;;;;;35.10;25.80;100046.09;10499862;28;19926;-71
2022/05/30 12:15:31;;;;;;;56.88;4.43;;;;;;;35.03;25.87;100032.00;10499249;28;20539;-70
2022/05/30 12:26:55;;;;;;;10.02;2.80;;;;;;;34.96;25.41;100020.72;10479359;28;20052;-72
2022/05/30 12:32:32;;;;;;;21.00;3.17;;;;;;;35.00;25.34;100016.13;10501846;28;20448;-71
2022/05/30 12:37:45;;;;;;;6.32;2.30;;;;;;;34.85;24.06;100036.91;10482602;28;20052;-72
2022/05/30 12:43:02;;;;;;;9.23;2.42;;;;;;;34.82;25.71;100011.91;10493769;28;20436;-72
2022/05/30 12:48:19;;;;;;;8.50;2.60;;;;;;;34.88;24.80;100010.56;10471476;28;20040;-71
2022/05/30 12:53:25;;;;;;;8.77;2.30;;;;;;;34.84;24.24;100023.44;10456611;28;20051;-70
2022/05/30 12:58:25;;;;;;;7.88;2.42;;;;;;;34.88;24.36;100018.84;10456452;28;20095;-70
2022/05/30 13:03:30;;;;;;;6.00;2.67;;;;;;;34.04;24.20;99911.31;10460662;28;20095;-71
2022/05/30 13:08:58;;;;;;;6.78;2.38;;;;;;;34.42;23.94;99974.59;10463923;28;20516;-70
2022/05/30 13:14:27;;;;;;;6.30;2.60;;;;;;;34.64;24.89;100019.53;10454722;28;20507;-72
2022/05/30 13:19:28;;;;;;;9.75;2.58;;;;;;;34.41;25.29;99994.25;10464644;28;20132;-71
2022/05/30 13:24:34;;;;;;;14.70;3.10;;;;;;;34.40;25.47;100009.97;10464225;28;20481;-72
2022/05/30 13:29:38;;;;;;;11.52;2.85;;;;;;;34.42;25.80;100013.22;10459265;28;20294;-70
2022/05/30 13:34:51;;;;;;;8.38;2.70;;;;;;;34.43;25.91;100008.50;10456579;28;20044;-72
2022/05/30 13:39:56;;;;;;;6.57;2.42;;;;;;;34.21;25.81;99990.34;10466406;28;20045;-72
2022/05/30 13:44:58;;;;;;;11.10;2.38;;;;;;;34.28;26.37;100007.16;10457773;28;20045;-71
2022/05/30 13:49:58;;;;;;;12.23;2.95;;;;;;;34.20;26.80;99995.06;10455512;28;20069;-72
2022/05/30 13:55:08;;;;;;;7.35;2.58;;;;;;;34.09;26.92;99993.81;10472314;28;20052;-72
2022/05/30 14:00:19;;;;;;;16.85;3.10;;;;;;;34.05;26.96;99999.19;10495157;28;20049;-71
2022/05/30 14:05:39;;;;;;;16.63;2.88;;;;;;;33.36;27.65;99892.91;10477142;28;20033;-72
2022/05/30 14:10:42;;;;;;;8.70;2.40;;;;;;;33.28;27.23;99898.47;10476944;28;20048;-71
2022/05/30 14:15:52;;;;;;;10.10;3.17;;;;;;;34.00;27.61;99999.34;10490950;28;20075;-73
2022/05/30 14:20:55;;;;;;;45.05;4.47;;;;;;;33.85;27.57;99997.19;10488494;28;20112;-74
2022/05/30 14:25:56;;;;;;;12.90;2.60;;;;;;;33.83;27.30;100007.72;10436559;28;20127;-72
2022/05/30 14:31:10;;;;;;;12.40;3.28;;;;;;;33.70;26.04;100006.00;10453704;28;20128;-72
2022/05/30 14:36:21;;;;;;;35.92;2.97;;;;;;;33.63;25.59;100006.53;10452839;28;20037;-72
2022/05/30 14:41:25;;;;;;;13.57;2.92;;;;;;;33.36;25.81;99989.28;10453408;28;20509;-72
2022/05/30 14:46:41;;;;;;;4.55;2.28;;;;;;;32.87;24.45;99908.94;10452819;28;20040;-72
2022/05/30 14:51:55;;;;;;;32.72;4.03;;;;;;;33.31;25.78;99994.97;10453187;28;20049;-73
2022/05/30 14:56:56;;;;;;;37.97;3.38;;;;;;;33.13;25.98;99985.94;10459899;28;20404;-72
2022/05/30 15:01:57;;;;;;;6.45;2.30;;;;;;;33.13;24.98;100010.72;10462093;28;20062;-72
2022/05/30 15:07:12;;;;;;;11.95;2.40;;;;;;;33.13;25.63;100026.41;10474374;28;20094;-72
2022/05/30 15:12:14;;;;;;;21.63;3.47;;;;;;;32.78;25.82;99990.66;10458564;28;20049;-73
2022/05/30 15:17:15;;;;;;;34.87;4.43;;;;;;;32.75;25.76;99991.31;10460497;28;20091;-72
2022/05/30 15:22:18;;;;;;;72.20;5.80;;;;;;;32.41;26.48;99973.69;10459079;28;20466;-72
2022/05/30 15:27:19;;;;;;;9.90;2.60;;;;;;;32.51;26.74;100011.06;10459319;28;20043;-72
2022/05/30 15:32:23;;;;;;;9.00;1.92;;;;;;;32.28;26.96;100013.13;10459455;28;20077;-73
2022/05/30 15:37:25;;;;;;;28.48;3.45;;;;;;;32.16;27.10;100023.91;10459480;28;20098;-72
2022/05/30 15:42:27;;;;;;;5.78;2.22;;;;;;;31.92;26.89;100013.34;10459420;28;20110;-72
2022/05/30 15:47:27;;;;;;;19.83;3.00;;;;;;;31.60;27.53;100013.38;10458865;28;20492;-73
2022/05/30 15:57:17;;;;;;;20.92;3.03;;;;;;;30.60;27.32;99905.94;10459017;28;20084;-71
2022/05/30 15:57:53;;;;;;;62.08;5.65;;;;;;;30.80;28.05;99978.69;10458956;28;20045;-72
2022/05/30 16:02:54;;;;;;;36.70;3.83;;;;;;;30.02;28.38;99910.31;10456961;28;20407;-72
2022/05/30 16:08:03;;;;;;;38.33;4.10;;;;;;;29.80;29.42;99920.09;10463242;28;20040;-72
2022/05/30 16:13:04;;;;;;;71.07;7.70;;;;;;;30.19;30.05;100028.25;10485009;28;20127;-72
2022/05/30 16:18:05;;;;;;;25.85;3.28;;;;;;;29.27;30.06;99919.78;10440084;28;20106;-73
2022/05/30 16:23:06;;;;;;;23.20;3.00;;;;;;;29.53;30.39;99994.78;10461833;28;20048;-73
2022/05/30 16:28:09;;;;;;;36.90;3.72;;;;;;;29.46;30.79;100029.13;10494044;28;20051;-72
2022/05/30 16:33:10;;;;;;;30.65;3.92;;;;;;;28.43;31.13;99917.91;10499600;28;20044;-72
2022/05/30 16:38:10;;;;;;;28.58;4.22;;;;;;;28.90;31.65;100036.34;10497777;28;20123;-73
2022/05/30 16:43:11;;;;;;;29.83;3.70;;;;;;;28.64;31.91;100041.38;10497520;28;20072;-73
2022/05/30 16:48:21;;;;;;;34.65;4.80;;;;;;;28.26;33.74;100019.47;10498206;28;20118;-72
2022/05/30 16:53:22;;;;;;;47.80;5.78;;;;;;;27.88;34.23;100027.59;10505697;28;20056;-72
2022/05/30 16:58:24;;;;;;;76.88;8.18;;;;;;;27.42;36.22;100043.59;10518713;28;20032;-74
2022/05/30 17:03:26;;;;;;;38.05;5.03;;;;;;;26.88;37.60;100039.13;10539013;28;20044;-74
2022/05/30 17:08:34;;;;;;;54.65;5.68;;;;;;;26.61;40.52;100059.44;10455364;28;20045;-73
2022/05/30 17:13:38;;;;;;;43.72;5.85;;;;;;;26.22;40.19;100068.31;10455911;28;20440;-74
2022/05/30 17:18:38;;;;;;;24.45;4.20;;;;;;;25.72;41.74;100051.84;10453979;28;20041;-76
2022/05/30 17:23:41;;;;;;;27.77;4.40;;;;;;;25.41;43.10;100050.28;10455444;28;20167;-72
2022/05/30 17:34:01;;;;;;;12.23;2.60;;;;;;;25.40;38.49;100068.50;10490265;28;20040;-72
2022/05/30 17:39:04;;;;;;;12.45;2.88;;;;;;;25.90;37.33;100101.34;10492101;28;20044;-72
2022/05/30 17:44:04;;;;;;;16.50;2.33;;;;;;;26.03;36.57;100078.22;10473194;28;20076;-71
2022/05/30 17:49:16;;;;;;;9.52;1.90;;;;;;;26.21;36.23;100102.09;10458255;28;20052;-72
2022/05/30 17:54:19;;;;;;;10.60;1.85;;;;;;;26.27;36.48;100120.06;10487880;28;20491;-71
2022/05/30 17:59:20;;;;;;;9.20;2.10;;;;;;;26.19;37.08;100118.69;10463310;28;20041;-72
2022/05/30 18:04:21;;;;;;;15.13;2.13;;;;;;;26.05;37.42;100114.91;10454065;28;20045;-71
2022/05/30 18:09:37;;;;;;;7.45;2.28;;;;;;;24.80;37.99;99926.91;10468219;28;20048;-71
2022/05/30 18:14:58;;;;;;;10.25;2.38;;;;;;;26.18;38.07;100138.88;10464824;28;20051;-71
2022/05/30 18:20:15;;;;;;;9.27;2.47;;;;;;;25.42;38.47;100025.50;10475742;28;20071;-72
2022/05/30 18:25:33;;;;;;;6.53;2.03;;;;;;;26.03;38.77;100133.47;10486748;28;20076;-72
2022/05/30 18:30:51;;;;;;;13.90;2.50;;;;;;;25.28;39.37;100017.13;10461668;28;20044;-71
2022/05/30 18:35:51;;;;;;;12.23;2.28;;;;;;;25.75;39.58;100115.78;10486140;28;20067;-72
2022/05/30 18:41:22;;;;;;;8.65;2.15;;;;;;;25.09;40.43;100024.16;10470235;28;20048;-72
2022/05/30 18:46:29;;;;;;;15.68;2.78;;;;;;;25.67;40.95;100146.28;10472243;28;20567;-72
2022/05/30 18:51:31;;;;;;;15.73;2.47;;;;;;;24.91;41.61;100049.16;10461141;28;20057;-72
2022/05/30 18:56:37;;;;;;;9.65;1.90;;;;;;;25.38;42.11;100143.28;10465227;28;20076;-72
2022/05/30 19:01:39;;;;;;;17.30;2.08;;;;;;;25.08;42.25;100139.41;10454022;28;20107;-71
2022/05/30 19:06:41;;;;;;;11.80;2.23;;;;;;;25.10;42.74;100148.09;10496734;28;20032;-72
2022/05/30 19:11:54;;;;;;;6.65;1.95;;;;;;;24.27;44.39;100037.56;10478387;28;20040;-72
2022/05/30 19:22:16;;;;;;;9.25;2.30;;;;;;;24.52;45.03;100120.22;10498796;28;20511;-72
2022/05/30 19:27:18;;;;;;;15.52;2.63;;;;;;;24.73;45.98;100143.66;10481071;28;20040;-72
2022/05/30 19:32:19;;;;;;;7.05;2.33;;;;;;;24.44;46.58;100118.84;10499184;28;20045;-71
2022/05/30 19:37:20;;;;;;;9.60;2.60;;;;;;;23.86;47.33;100031.16;10498198;28;20075;-71
2022/05/30 19:42:21;;;;;;;14.02;2.83;;;;;;;23.67;47.67;100006.34;10496076;28;20714;-72
2022/05/30 19:47:23;;;;;;;12.20;2.72;;;;;;;24.41;48.67;100140.22;10497882;28;20068;-71
2022/05/30 19:52:25;;;;;;;6.65;2.35;;;;;;;23.66;49.19;100026.38;10476516;28;20053;-71
2022/05/30 19:57:26;;;;;;;15.77;2.80;;;;;;;24.25;49.59;100142.88;10486245;28;20036;-72
2022/05/30 20:02:27;;;;;;;11.45;2.63;;;;;;;24.18;50.04;100136.88;10493430;28;20480;-72
2022/05/30 20:07:29;;;;;;;9.35;2.70;;;;;;;24.05;50.56;100140.03;10481124;28;20131;-72
2022/05/30 20:12:29;;;;;;;10.63;2.67;;;;;;;23.87;51.10;100133.13;10468383;28;20131;-72
2022/05/30 20:17:31;;;;;;;10.88;2.45;;;;;;;23.71;51.29;100131.41;10465583;28;20134;-72
2022/05/30 20:22:32;;;;;;;5.88;2.08;;;;;;;23.56;51.99;100130.19;10459304;28;20129;-72
2022/05/30 20:27:33;;;;;;;10.18;2.33;;;;;;;22.75;52.29;100025.38;10457596;28;20124;-72
2022/05/30 20:32:34;;;;;;;8.15;2.33;;;;;;;22.60;52.89;100027.94;10456627;28;20044;-72
2022/05/30 20:37:35;;;;;;;5.70;2.58;;;;;;;22.47;53.43;100028.34;10456093;28;20040;-72
2022/05/30 20:47:55;;;;;;;10.07;2.53;;;;;;;22.74;55.12;100140.19;10497378;28;20055;-72
2022/05/30 20:52:56;;;;;;;6.43;2.42;;;;;;;22.38;55.77;100114.59;10497617;28;20063;-72
2022/05/30 20:57:57;;;;;;;13.52;3.00;;;;;;;21.45;56.58;100018.88;10497037;28;20040;-73
2022/05/30 21:02:58;;;;;;;14.23;2.70;;;;;;;22.03;57.71;100134.66;10495750;28;20051;-72
2022/05/30 21:07:59;;;;;;;13.13;3.13;;;;;;;21.27;57.95;100025.31;10497998;28;20174;-72
2022/05/30 21:13:00;;;;;;;12.95;2.67;;;;;;;21.80;58.05;100119.44;10496485;28;20090;-72
2022/05/30 21:18:33;;;;;;;13.43;3.05;;;;;;;21.05;60.59;100022.56;10496349;28;20089;-72
2022/05/30 21:23:37;;;;;;;5.78;2.90;;;;;;;21.38;59.46;100127.94;10497681;28;20040;-72
2022/05/30 21:28:37;;;;;;;;;;;;;;;21.28;58.33;100130.47;10496844;28;20523;-72
2022/05/30 21:33:49;;;;;;;7.43;2.53;;;;;;;20.78;60.28;100127.63;10495774;28;19959;-72
2022/05/30 21:38:49;;;;;;;5.10;2.50;;;;;;;20.74;60.10;100140.81;10478156;28;20028;-73
2022/05/30 21:43:50;;;;;;;11.23;2.63;;;;;;;20.78;60.48;100139.25;10496052;28;20048;-72
2022/05/30 21:48:51;;;;;;;13.95;3.20;;;;;;;20.70;60.77;100120.72;10495465;28;20032;-72
2022/05/30 21:53:52;;;;;;;7.68;2.95;;;;;;;20.61;61.15;100122.16;10495275;28;20040;-72
2022/05/30 21:59:04;;;;;;;5.85;2.83;;;;;;;20.63;63.46;100149.75;10472286;28;20047;-72
2022/05/30 22:04:07;;;;;;;8.73;3.33;;;;;;;20.49;62.23;100143.75;10494926;28;20075;-72
2022/05/30 22:09:08;;;;;;;6.15;3.40;;;;;;;20.32;62.86;100157.19;10493994;28;20051;-72
2022/05/30 22:14:09;;;;;;;8.55;3.65;;;;;;;19.52;63.80;100083.06;10494888;28;20424;-73
2022/05/30 22:19:10;;;;;;;7.75;3.45;;;;;;;19.82;65.53;100163.03;10495365;28;20576;-73
2022/05/30 22:24:11;;;;;;;8.93;3.45;;;;;;;19.63;66.19;100161.47;10494491;28;20131;-72
2022/05/30 22:29:12;;;;;;;13.40;3.60;;;;;;;18.64;66.41;100025.41;10495279;28;20040;-72
2022/05/30 22:34:12;;;;;;;12.40;3.63;;;;;;;18.88;67.50;100104.38;10494620;28;20036;-72
2022/05/30 22:39:13;;;;;;;7.35;3.40;;;;;;;19.22;67.66;100160.44;10494864;28;20504;-72
2022/05/30 22:44:14;;;;;;;7.50;3.72;;;;;;;18.39;68.13;100052.41;10494355;28;20037;-72
2022/05/30 22:49:15;;;;;;;6.55;3.40;;;;;;;17.37;69.00;99927.69;10494887;28;20064;-72
2022/05/30 22:54:16;;;;;;;11.60;3.70;;;;;;;18.78;69.86;100173.22;10495160;28;20404;-72
2022/05/30 22:59:17;;;;;;;8.00;3.42;;;;;;;18.77;70.10;100168.91;10495475;28;20052;-72
2022/05/30 23:04:17;;;;;;;14.32;3.72;;;;;;;18.46;69.85;100133.84;10494491;28;20040;-72
2022/05/30 23:09:18;;;;;;;9.27;3.65;;;;;;;18.14;69.45;100103.59;10491557;28;20044;-72
2022/05/30 23:14:24;;;;;;;8.07;3.83;;;;;;;18.36;70.89;100148.84;10494171;28;20098;-72
2022/05/30 23:19:35;;;;;;;5.95;3.45;;;;;;;18.18;71.49;100160.41;10502093;28;20131;-73
2022/05/30 23:24:36;;;;;;;13.57;4.03;;;;;;;18.15;70.37;100168.94;10500781;28;20458;-72
2022/05/30 23:29:38;;;;;;;7.32;3.65;;;;;;;17.77;70.86;100143.84;10500704;28;20524;-72
2022/05/30 23:34:39;;;;;;;14.43;4.63;;;;;;;17.82;71.21;100161.16;10501102;28;20040;-72
2022/05/30 23:39:39;;;;;;;17.63;5.20;;;;;;;17.74;71.63;100160.38;10500420;28;20041;-72
2022/05/30 23:44:41;;;;;;;11.68;4.93;;;;;;;17.75;72.06;100162.03;10500039;28;20094;-72
2022/05/30 23:49:48;;;;;;;12.25;4.97;;;;;;;17.56;73.46;100153.09;10500480;28;20044;-72